sensor_id;sensor_type;location;lat;lon;timestamp;P1;durP1;ratioP1;P2;durP2;ratioP2
19842;SDS011;10082;51.038;6.992;2023-09-12T00:02:16;8.57;;;7.78;;
19842;SDS011;10082;51.038;6.992;2023-09-12T00:04:44;9.50;;;8.27;;
19842;SDS011;10082;51.038;6.992;2023-09-12T00:07:11;9.32;;;7.47;;
19842;SDS011;10082;51.038;6.992;2023-09-12T00:09:38;8.57;;;7.75;;
19842;SDS011;10082;51.038;6.992;2023-09-12T00:12:12;7.68;;;6.93;;
19842;SDS011;10082;51.038;6.992;2023-09-12T00:14:40;7.75;;;7.07;;
19842;SDS011;10082;51.038;6.992;2023-09-12T00:17:08;9.38;;;7.03;;
19842;SDS011;10082;51.038;6.992;2023-09-12T00:19:36;7.18;;;6.47;;
19842;SDS011;10082;51.038;6.992;2023-09-12T00:22:03;8.13;;;7.28;;
19842;SDS011;10082;51.038;6.992;2023-09-12T00:24:30;7.78;;;6.82;;
19842;SDS011;10082;51.038;6.992;2023-09-12T00:26:58;6.32;;;5.72;;
19842;SDS011;10082;51.038;6.992;2023-09-12T00:29:27;6.50;;;5.90;;
19842;SDS011;10082;51.038;6.992;2023-09-12T00:31:54;6.18;;;5.60;;
19842;SDS011;10082;51.038;6.992;2023-09-12T00:34:24;5.72;;;4.90;;
19842;SDS011;10082;51.038;6.992;2023-09-12T00:36:56;6.18;;;5.43;;
19842;SDS011;10082;51.038;6.992;2023-09-12T00:39:23;5.55;;;5.00;;
19842;SDS011;10082;51.038;6.992;2023-09-12T00:41:51;5.97;;;5.45;;
19842;SDS011;10082;51.038;6.992;2023-09-12T00:44:22;5.53;;;4.82;;
19842;SDS011;10082;51.038;6.992;2023-09-12T00:46:51;5.47;;;4.97;;
19842;SDS011;10082;51.038;6.992;2023-09-12T00:49:21;5.80;;;4.90;;
19842;SDS011;10082;51.038;6.992;2023-09-12T00:51:50;5.35;;;4.85;;
19842;SDS011;10082;51.038;6.992;2023-09-12T00:54:20;7.30;;;5.30;;
19842;SDS011;10082;51.038;6.992;2023-09-12T00:56:48;5.35;;;4.95;;
19842;SDS011;10082;51.038;6.992;2023-09-12T00:59:16;5.20;;;4.78;;
19842;SDS011;10082;51.038;6.992;2023-09-12T01:01:48;5.43;;;4.93;;
19842;SDS011;10082;51.038;6.992;2023-09-12T01:04:17;6.80;;;5.38;;
19842;SDS011;10082;51.038;6.992;2023-09-12T01:06:44;5.85;;;5.35;;
19842;SDS011;10082;51.038;6.992;2023-09-12T01:09:13;5.68;;;5.15;;
19842;SDS011;10082;51.038;6.992;2023-09-12T01:11:41;5.57;;;5.18;;
19842;SDS011;10082;51.038;6.992;2023-09-12T01:14:09;6.20;;;5.60;;
19842;SDS011;10082;51.038;6.992;2023-09-12T01:16:37;6.22;;;5.43;;
19842;SDS011;10082;51.038;6.992;2023-09-12T01:19:05;5.55;;;5.05;;
19842;SDS011;10082;51.038;6.992;2023-09-12T01:21:40;8.70;;;5.63;;
19842;SDS011;10082;51.038;6.992;2023-09-12T01:24:38;6.60;;;6.00;;
19842;SDS011;10082;51.038;6.992;2023-09-12T01:27:25;7.05;;;6.03;;
19842;SDS011;10082;51.038;6.992;2023-09-12T01:29:56;5.97;;;5.47;;
19842;SDS011;10082;51.038;6.992;2023-09-12T01:32:26;5.88;;;5.38;;
19842;SDS011;10082;51.038;6.992;2023-09-12T01:34:54;6.15;;;5.57;;
19842;SDS011;10082;51.038;6.992;2023-09-12T01:40:00;6.05;;;5.45;;
19842;SDS011;10082;51.038;6.992;2023-09-12T01:42:35;10.88;;;5.65;;
19842;SDS011;10082;51.038;6.992;2023-09-12T01:45:04;6.32;;;5.82;;
19842;SDS011;10082;51.038;6.992;2023-09-12T01:47:33;7.13;;;6.28;;
19842;SDS011;10082;51.038;6.992;2023-09-12T01:50:02;6.03;;;5.53;;
19842;SDS011;10082;51.038;6.992;2023-09-12T01:52:31;5.93;;;5.40;;
19842;SDS011;10082;51.038;6.992;2023-09-12T01:54:59;6.03;;;5.55;;
19842;SDS011;10082;51.038;6.992;2023-09-12T01:57:28;6.22;;;5.55;;
19842;SDS011;10082;51.038;6.992;2023-09-12T01:59:58;7.07;;;6.13;;
19842;SDS011;10082;51.038;6.992;2023-09-12T02:02:25;6.22;;;5.63;;
19842;SDS011;10082;51.038;6.992;2023-09-12T02:04:58;7.68;;;6.75;;
19842;SDS011;10082;51.038;6.992;2023-09-12T02:07:37;6.53;;;6.00;;
19842;SDS011;10082;51.038;6.992;2023-09-12T02:10:06;7.05;;;6.45;;
19842;SDS011;10082;51.038;6.992;2023-09-12T02:12:36;7.00;;;6.40;;
19842;SDS011;10082;51.038;6.992;2023-09-12T02:15:04;6.38;;;5.88;;
19842;SDS011;10082;51.038;6.992;2023-09-12T02:17:32;7.15;;;6.47;;
19842;SDS011;10082;51.038;6.992;2023-09-12T02:19:59;7.22;;;6.53;;
19842;SDS011;10082;51.038;6.992;2023-09-12T02:22:27;7.03;;;6.38;;
19842;SDS011;10082;51.038;6.992;2023-09-12T02:24:54;7.20;;;6.60;;
19842;SDS011;10082;51.038;6.992;2023-09-12T02:27:21;8.63;;;6.78;;
19842;SDS011;10082;51.038;6.992;2023-09-12T02:29:51;6.13;;;5.63;;
19842;SDS011;10082;51.038;6.992;2023-09-12T02:32:21;7.10;;;6.50;;
19842;SDS011;10082;51.038;6.992;2023-09-12T02:34:48;7.38;;;6.70;;
19842;SDS011;10082;51.038;6.992;2023-09-12T02:37:16;7.78;;;7.00;;
19842;SDS011;10082;51.038;6.992;2023-09-12T02:39:46;7.60;;;7.00;;
19842;SDS011;10082;51.038;6.992;2023-09-12T02:42:13;7.22;;;6.57;;
19842;SDS011;10082;51.038;6.992;2023-09-12T02:44:40;8.07;;;6.88;;
19842;SDS011;10082;51.038;6.992;2023-09-12T02:47:09;7.22;;;6.63;;
19842;SDS011;10082;51.038;6.992;2023-09-12T02:49:36;7.65;;;7.05;;
19842;SDS011;10082;51.038;6.992;2023-09-12T02:52:04;7.80;;;6.78;;
19842;SDS011;10082;51.038;6.992;2023-09-12T02:54:31;8.73;;;7.88;;
19842;SDS011;10082;51.038;6.992;2023-09-12T02:56:59;10.48;;;9.55;;
19842;SDS011;10082;51.038;6.992;2023-09-12T02:59:27;9.98;;;9.18;;
19842;SDS011;10082;51.038;6.992;2023-09-12T03:01:57;11.52;;;10.43;;
19842;SDS011;10082;51.038;6.992;2023-09-12T03:04:26;11.18;;;10.27;;
19842;SDS011;10082;51.038;6.992;2023-09-12T03:06:54;12.00;;;10.10;;
19842;SDS011;10082;51.038;6.992;2023-09-12T03:09:22;10.07;;;9.27;;
19842;SDS011;10082;51.038;6.992;2023-09-12T03:11:50;10.63;;;9.52;;
19842;SDS011;10082;51.038;6.992;2023-09-12T03:14:17;11.02;;;9.93;;
19842;SDS011;10082;51.038;6.992;2023-09-12T03:16:45;9.88;;;8.98;;
19842;SDS011;10082;51.038;6.992;2023-09-12T03:19:12;10.00;;;9.02;;
19842;SDS011;10082;51.038;6.992;2023-09-12T03:21:41;10.30;;;9.30;;
19842;SDS011;10082;51.038;6.992;2023-09-12T03:24:09;9.43;;;8.52;;
19842;SDS011;10082;51.038;6.992;2023-09-12T03:26:37;9.57;;;8.68;;
19842;SDS011;10082;51.038;6.992;2023-09-12T03:29:04;10.18;;;9.32;;
19842;SDS011;10082;51.038;6.992;2023-09-12T03:31:33;12.38;;;9.73;;
19842;SDS011;10082;51.038;6.992;2023-09-12T03:34:02;10.43;;;9.27;;
19842;SDS011;10082;51.038;6.992;2023-09-12T03:36:29;10.52;;;9.52;;
19842;SDS011;10082;51.038;6.992;2023-09-12T03:39:02;10.73;;;9.82;;
19842;SDS011;10082;51.038;6.992;2023-09-12T03:41:31;10.93;;;9.80;;
19842;SDS011;10082;51.038;6.992;2023-09-12T03:44:03;10.45;;;9.55;;
19842;SDS011;10082;51.038;6.992;2023-09-12T03:46:30;10.80;;;9.80;;
19842;SDS011;10082;51.038;6.992;2023-09-12T03:48:58;10.90;;;9.85;;
19842;SDS011;10082;51.038;6.992;2023-09-12T03:51:25;11.00;;;9.90;;
19842;SDS011;10082;51.038;6.992;2023-09-12T03:53:53;10.35;;;9.32;;
19842;SDS011;10082;51.038;6.992;2023-09-12T03:56:22;9.95;;;9.15;;
19842;SDS011;10082;51.038;6.992;2023-09-12T03:58:50;9.60;;;8.70;;
19842;SDS011;10082;51.038;6.992;2023-09-12T04:01:19;10.20;;;9.05;;
19842;SDS011;10082;51.038;6.992;2023-09-12T04:03:46;9.80;;;8.90;;
19842;SDS011;10082;51.038;6.992;2023-09-12T04:06:13;9.95;;;8.95;;
19842;SDS011;10082;51.038;6.992;2023-09-12T04:08:41;9.65;;;8.80;;
19842;SDS011;10082;51.038;6.992;2023-09-12T04:11:09;9.73;;;8.75;;
19842;SDS011;10082;51.038;6.992;2023-09-12T04:13:41;8.65;;;7.95;;
19842;SDS011;10082;51.038;6.992;2023-09-12T04:16:09;9.43;;;8.63;;
19842;SDS011;10082;51.038;6.992;2023-09-12T04:18:39;9.63;;;8.82;;
19842;SDS011;10082;51.038;6.992;2023-09-12T04:21:06;9.50;;;8.60;;
19842;SDS011;10082;51.038;6.992;2023-09-12T04:23:34;9.40;;;8.50;;
19842;SDS011;10082;51.038;6.992;2023-09-12T04:26:01;9.68;;;8.68;;
19842;SDS011;10082;51.038;6.992;2023-09-12T04:28:31;9.48;;;8.57;;
19842;SDS011;10082;51.038;6.992;2023-09-12T04:31:03;8.85;;;8.05;;
19842;SDS011;10082;51.038;6.992;2023-09-12T04:33:31;8.75;;;7.95;;
19842;SDS011;10082;51.038;6.992;2023-09-12T04:36:00;9.38;;;8.57;;
19842;SDS011;10082;51.038;6.992;2023-09-12T04:38:30;8.60;;;7.88;;
19842;SDS011;10082;51.038;6.992;2023-09-12T04:40:59;8.27;;;7.60;;
19842;SDS011;10082;51.038;6.992;2023-09-12T04:43:30;9.32;;;8.55;;
19842;SDS011;10082;51.038;6.992;2023-09-12T04:45:58;8.68;;;7.78;;
19842;SDS011;10082;51.038;6.992;2023-09-12T04:48:28;9.45;;;8.55;;
19842;SDS011;10082;51.038;6.992;2023-09-12T04:50:55;9.32;;;8.38;;
19842;SDS011;10082;51.038;6.992;2023-09-12T04:53:23;8.82;;;8.02;;
19842;SDS011;10082;51.038;6.992;2023-09-12T04:55:51;10.35;;;8.93;;
19842;SDS011;10082;51.038;6.992;2023-09-12T04:58:23;9.35;;;8.32;;
19842;SDS011;10082;51.038;6.992;2023-09-12T05:00:50;11.05;;;8.80;;
19842;SDS011;10082;51.038;6.992;2023-09-12T05:03:17;9.63;;;8.73;;
19842;SDS011;10082;51.038;6.992;2023-09-12T05:05:47;9.75;;;8.85;;
19842;SDS011;10082;51.038;6.992;2023-09-12T05:08:16;9.50;;;8.60;;
19842;SDS011;10082;51.038;6.992;2023-09-12T05:10:50;9.30;;;8.38;;
19842;SDS011;10082;51.038;6.992;2023-09-12T05:13:18;10.13;;;7.95;;
19842;SDS011;10082;51.038;6.992;2023-09-12T05:15:46;8.70;;;7.82;;
19842;SDS011;10082;51.038;6.992;2023-09-12T05:18:14;8.13;;;7.30;;
19842;SDS011;10082;51.038;6.992;2023-09-12T05:20:41;8.10;;;7.40;;
19842;SDS011;10082;51.038;6.992;2023-09-12T05:23:10;8.65;;;7.65;;
19842;SDS011;10082;51.038;6.992;2023-09-12T05:25:39;9.32;;;8.50;;
19842;SDS011;10082;51.038;6.992;2023-09-12T05:28:07;9.80;;;7.85;;
19842;SDS011;10082;51.038;6.992;2023-09-12T05:30:35;10.75;;;8.77;;
19842;SDS011;10082;51.038;6.992;2023-09-12T05:33:03;9.13;;;8.20;;
19842;SDS011;10082;51.038;6.992;2023-09-12T05:35:33;9.10;;;8.20;;
19842;SDS011;10082;51.038;6.992;2023-09-12T05:38:01;10.45;;;8.60;;
19842;SDS011;10082;51.038;6.992;2023-09-12T05:40:31;8.82;;;7.78;;
19842;SDS011;10082;51.038;6.992;2023-09-12T05:42:59;9.30;;;8.40;;
19842;SDS011;10082;51.038;6.992;2023-09-12T05:45:28;9.55;;;8.55;;
19842;SDS011;10082;51.038;6.992;2023-09-12T05:47:58;9.57;;;8.57;;
19842;SDS011;10082;51.038;6.992;2023-09-12T05:50:28;12.48;;;8.85;;
19842;SDS011;10082;51.038;6.992;2023-09-12T05:52:56;8.77;;;7.95;;
19842;SDS011;10082;51.038;6.992;2023-09-12T05:55:26;11.80;;;8.00;;
19842;SDS011;10082;51.038;6.992;2023-09-12T05:57:57;9.25;;;8.35;;
19842;SDS011;10082;51.038;6.992;2023-09-12T06:00:25;7.50;;;6.90;;
19842;SDS011;10082;51.038;6.992;2023-09-12T06:02:52;8.95;;;7.53;;
19842;SDS011;10082;51.038;6.992;2023-09-12T06:05:23;8.98;;;8.10;;
19842;SDS011;10082;51.038;6.992;2023-09-12T06:07:51;8.15;;;7.28;;
19842;SDS011;10082;51.038;6.992;2023-09-12T06:10:18;7.30;;;6.60;;
19842;SDS011;10082;51.038;6.992;2023-09-12T06:12:47;6.97;;;6.38;;
19842;SDS011;10082;51.038;6.992;2023-09-12T06:15:16;8.10;;;7.30;;
19842;SDS011;10082;51.038;6.992;2023-09-12T06:17:43;9.70;;;8.13;;
19842;SDS011;10082;51.038;6.992;2023-09-12T06:20:13;10.88;;;9.75;;
19842;SDS011;10082;51.038;6.992;2023-09-12T06:22:40;13.98;;;12.43;;
19842;SDS011;10082;51.038;6.992;2023-09-12T06:25:10;13.00;;;11.80;;
19842;SDS011;10082;51.038;6.992;2023-09-12T06:27:37;19.85;;;17.85;;
19842;SDS011;10082;51.038;6.992;2023-09-12T06:30:05;21.45;;;19.48;;
19842;SDS011;10082;51.038;6.992;2023-09-12T06:32:36;20.10;;;18.20;;
19842;SDS011;10082;51.038;6.992;2023-09-12T06:35:04;18.35;;;16.55;;
19842;SDS011;10082;51.038;6.992;2023-09-12T06:37:31;19.83;;;17.95;;
19842;SDS011;10082;51.038;6.992;2023-09-12T06:39:58;20.58;;;18.48;;
19842;SDS011;10082;51.038;6.992;2023-09-12T06:42:25;20.63;;;18.42;;
19842;SDS011;10082;51.038;6.992;2023-09-12T06:44:53;18.58;;;16.88;;
19842;SDS011;10082;51.038;6.992;2023-09-12T06:47:20;18.05;;;16.35;;
19842;SDS011;10082;51.038;6.992;2023-09-12T06:49:51;17.48;;;15.77;;
19842;SDS011;10082;51.038;6.992;2023-09-12T06:52:19;17.05;;;15.43;;
19842;SDS011;10082;51.038;6.992;2023-09-12T06:54:47;15.18;;;13.68;;
19842;SDS011;10082;51.038;6.992;2023-09-12T06:57:14;15.02;;;13.70;;
19842;SDS011;10082;51.038;6.992;2023-09-12T06:59:41;14.18;;;12.73;;
19842;SDS011;10082;51.038;6.992;2023-09-12T07:02:11;13.13;;;11.82;;
19842;SDS011;10082;51.038;6.992;2023-09-12T07:04:38;11.63;;;10.30;;
19842;SDS011;10082;51.038;6.992;2023-09-12T07:07:07;12.70;;;9.68;;
19842;SDS011;10082;51.038;6.992;2023-09-12T07:09:35;10.35;;;9.30;;
19842;SDS011;10082;51.038;6.992;2023-09-12T07:12:02;8.48;;;7.72;;
19842;SDS011;10082;51.038;6.992;2023-09-12T07:14:35;8.18;;;7.18;;
19842;SDS011;10082;51.038;6.992;2023-09-12T07:17:07;9.15;;;8.07;;
19842;SDS011;10082;51.038;6.992;2023-09-12T07:19:34;9.80;;;7.28;;
19842;SDS011;10082;51.038;6.992;2023-09-12T07:22:01;9.40;;;7.65;;
19842;SDS011;10082;51.038;6.992;2023-09-12T07:24:31;8.77;;;6.82;;
19842;SDS011;10082;51.038;6.992;2023-09-12T07:27:04;8.95;;;6.72;;
19842;SDS011;10082;51.038;6.992;2023-09-12T07:29:31;6.70;;;6.05;;
19842;SDS011;10082;51.038;6.992;2023-09-12T07:31:58;8.38;;;6.97;;
19842;SDS011;10082;51.038;6.992;2023-09-12T07:34:25;7.88;;;6.25;;
19842;SDS011;10082;51.038;6.992;2023-09-12T07:36:55;7.95;;;6.40;;
19842;SDS011;10082;51.038;6.992;2023-09-12T07:39:25;7.10;;;6.22;;
19842;SDS011;10082;51.038;6.992;2023-09-12T07:41:56;6.63;;;5.43;;
19842;SDS011;10082;51.038;6.992;2023-09-12T07:44:28;6.45;;;5.90;;
19842;SDS011;10082;51.038;6.992;2023-09-12T07:46:55;6.57;;;5.90;;
19842;SDS011;10082;51.038;6.992;2023-09-12T07:49:22;7.97;;;5.85;;
19842;SDS011;10082;51.038;6.992;2023-09-12T07:51:51;6.65;;;5.95;;
19842;SDS011;10082;51.038;6.992;2023-09-12T07:54:19;6.70;;;6.00;;
19842;SDS011;10082;51.038;6.992;2023-09-12T07:56:46;5.88;;;4.95;;
19842;SDS011;10082;51.038;6.992;2023-09-12T07:59:18;5.70;;;5.20;;
19842;SDS011;10082;51.038;6.992;2023-09-12T08:01:45;5.50;;;4.93;;
19842;SDS011;10082;51.038;6.992;2023-09-12T08:04:16;5.25;;;4.75;;
19842;SDS011;10082;51.038;6.992;2023-09-12T08:06:43;6.55;;;4.80;;
19842;SDS011;10082;51.038;6.992;2023-09-12T08:09:11;5.38;;;4.82;;
19842;SDS011;10082;51.038;6.992;2023-09-12T08:11:38;5.25;;;4.80;;
19842;SDS011;10082;51.038;6.992;2023-09-12T08:14:05;5.40;;;4.90;;
19842;SDS011;10082;51.038;6.992;2023-09-12T08:16:34;5.50;;;4.85;;
19842;SDS011;10082;51.038;6.992;2023-09-12T08:19:01;5.32;;;4.72;;
19842;SDS011;10082;51.038;6.992;2023-09-12T08:21:28;5.95;;;4.80;;
19842;SDS011;10082;51.038;6.992;2023-09-12T08:23:56;5.28;;;4.82;;
19842;SDS011;10082;51.038;6.992;2023-09-12T08:26:23;5.55;;;5.07;;
19842;SDS011;10082;51.038;6.992;2023-09-12T08:28:51;6.55;;;4.68;;
19842;SDS011;10082;51.038;6.992;2023-09-12T08:31:18;5.82;;;5.15;;
19842;SDS011;10082;51.038;6.992;2023-09-12T08:33:46;7.38;;;6.47;;
19842;SDS011;10082;51.038;6.992;2023-09-12T08:36:17;6.05;;;5.38;;
19842;SDS011;10082;51.038;6.992;2023-09-12T08:38:45;6.68;;;5.88;;
19842;SDS011;10082;51.038;6.992;2023-09-12T08:41:15;6.43;;;5.90;;
19842;SDS011;10082;51.038;6.992;2023-09-12T08:43:48;6.43;;;5.75;;
19842;SDS011;10082;51.038;6.992;2023-09-12T08:46:16;7.05;;;5.68;;
19842;SDS011;10082;51.038;6.992;2023-09-12T08:48:50;6.40;;;5.80;;
19842;SDS011;10082;51.038;6.992;2023-09-12T08:51:19;6.80;;;6.10;;
19842;SDS011;10082;51.038;6.992;2023-09-12T08:53:57;6.05;;;5.47;;
19842;SDS011;10082;51.038;6.992;2023-09-12T08:56:29;7.20;;;6.50;;
19842;SDS011;10082;51.038;6.992;2023-09-12T08:59:16;8.38;;;7.50;;
19842;SDS011;10082;51.038;6.992;2023-09-12T09:01:44;6.75;;;5.88;;
19842;SDS011;10082;51.038;6.992;2023-09-12T09:06:56;7.78;;;6.90;;
19842;SDS011;10082;51.038;6.992;2023-09-12T09:09:25;7.65;;;6.82;;
19842;SDS011;10082;51.038;6.992;2023-09-12T09:11:53;9.18;;;7.25;;
19842;SDS011;10082;51.038;6.992;2023-09-12T09:14:29;8.82;;;7.60;;
19842;SDS011;10082;51.038;6.992;2023-09-12T09:16:59;8.35;;;7.50;;
19842;SDS011;10082;51.038;6.992;2023-09-12T09:19:39;7.63;;;6.90;;
19842;SDS011;10082;51.038;6.992;2023-09-12T09:22:13;7.78;;;6.95;;
19842;SDS011;10082;51.038;6.992;2023-09-12T09:24:40;7.97;;;7.22;;
19842;SDS011;10082;51.038;6.992;2023-09-12T09:27:10;8.05;;;7.25;;
19842;SDS011;10082;51.038;6.992;2023-09-12T09:29:45;9.07;;;7.63;;
19842;SDS011;10082;51.038;6.992;2023-09-12T09:32:17;7.88;;;7.22;;
19842;SDS011;10082;51.038;6.992;2023-09-12T09:34:48;7.43;;;6.72;;
19842;SDS011;10082;51.038;6.992;2023-09-12T09:37:15;8.68;;;7.90;;
19842;SDS011;10082;51.038;6.992;2023-09-12T09:39:44;8.60;;;7.10;;
19842;SDS011;10082;51.038;6.992;2023-09-12T09:42:18;8.75;;;8.05;;
19842;SDS011;10082;51.038;6.992;2023-09-12T09:44:48;7.63;;;6.88;;
19842;SDS011;10082;51.038;6.992;2023-09-12T09:47:16;6.65;;;6.05;;
19842;SDS011;10082;51.038;6.992;2023-09-12T09:49:45;7.20;;;6.03;;
19842;SDS011;10082;51.038;6.992;2023-09-12T09:52:20;5.93;;;5.40;;
19842;SDS011;10082;51.038;6.992;2023-09-12T09:54:55;6.78;;;6.13;;
19842;SDS011;10082;51.038;6.992;2023-09-12T09:57:25;7.15;;;6.45;;
19842;SDS011;10082;51.038;6.992;2023-09-12T09:59:55;6.60;;;5.30;;
19842;SDS011;10082;51.038;6.992;2023-09-12T10:02:30;6.07;;;5.68;;
19842;SDS011;10082;51.038;6.992;2023-09-12T10:05:01;7.63;;;5.10;;
19842;SDS011;10082;51.038;6.992;2023-09-12T10:07:33;4.65;;;4.25;;
19842;SDS011;10082;51.038;6.992;2023-09-12T10:10:04;6.32;;;5.20;;
19842;SDS011;10082;51.038;6.992;2023-09-12T10:12:33;9.27;;;5.25;;
19842;SDS011;10082;51.038;6.992;2023-09-12T10:15:06;8.68;;;5.10;;
19842;SDS011;10082;51.038;6.992;2023-09-12T10:17:36;5.95;;;4.28;;
19842;SDS011;10082;51.038;6.992;2023-09-12T10:20:07;5.00;;;4.40;;
19842;SDS011;10082;51.038;6.992;2023-09-12T10:22:43;5.82;;;4.43;;
19842;SDS011;10082;51.038;6.992;2023-09-12T10:25:28;5.00;;;4.50;;
19842;SDS011;10082;51.038;6.992;2023-09-12T10:27:58;5.32;;;4.93;;
19842;SDS011;10082;51.038;6.992;2023-09-12T10:30:25;5.88;;;5.38;;
19842;SDS011;10082;51.038;6.992;2023-09-12T10:32:53;7.50;;;5.78;;
19842;SDS011;10082;51.038;6.992;2023-09-12T10:35:21;5.90;;;5.30;;
19842;SDS011;10082;51.038;6.992;2023-09-12T10:37:50;5.68;;;5.18;;
19842;SDS011;10082;51.038;6.992;2023-09-12T10:40:20;5.70;;;5.28;;
19842;SDS011;10082;51.038;6.992;2023-09-12T10:42:48;6.82;;;6.25;;
19842;SDS011;10082;51.038;6.992;2023-09-12T10:45:17;6.57;;;6.00;;
19842;SDS011;10082;51.038;6.992;2023-09-12T10:47:45;6.80;;;6.15;;
19842;SDS011;10082;51.038;6.992;2023-09-12T10:50:13;6.03;;;5.18;;
19842;SDS011;10082;51.038;6.992;2023-09-12T10:52:40;5.57;;;4.95;;
19842;SDS011;10082;51.038;6.992;2023-09-12T10:55:09;7.70;;;7.00;;
19842;SDS011;10082;51.038;6.992;2023-09-12T11:00:29;6.47;;;5.88;;
19842;SDS011;10082;51.038;6.992;2023-09-12T11:02:58;7.70;;;7.00;;
19842;SDS011;10082;51.038;6.992;2023-09-12T11:05:35;7.35;;;6.18;;
19842;SDS011;10082;51.038;6.992;2023-09-12T11:08:06;6.05;;;5.45;;
19842;SDS011;10082;51.038;6.992;2023-09-12T11:10:34;6.57;;;5.97;;
19842;SDS011;10082;51.038;6.992;2023-09-12T11:13:04;7.03;;;5.65;;
19842;SDS011;10082;51.038;6.992;2023-09-12T11:21:40;6.75;;;6.25;;
19842;SDS011;10082;51.038;6.992;2023-09-12T11:24:07;6.55;;;5.88;;
19842;SDS011;10082;51.038;6.992;2023-09-12T11:26:54;7.45;;;6.60;;
19842;SDS011;10082;51.038;6.992;2023-09-12T11:29:26;5.88;;;5.35;;
19842;SDS011;10082;51.038;6.992;2023-09-12T11:31:58;6.45;;;5.85;;
19842;SDS011;10082;51.038;6.992;2023-09-12T11:34:27;6.22;;;5.72;;
19842;SDS011;10082;51.038;6.992;2023-09-12T11:36:58;5.55;;;5.00;;
19842;SDS011;10082;51.038;6.992;2023-09-12T11:39:29;5.82;;;5.32;;
19842;SDS011;10082;51.038;6.992;2023-09-12T11:42:00;6.75;;;5.65;;
19842;SDS011;10082;51.038;6.992;2023-09-12T11:44:28;6.50;;;5.90;;
19842;SDS011;10082;51.038;6.992;2023-09-12T11:46:59;6.30;;;5.72;;
19842;SDS011;10082;51.038;6.992;2023-09-12T11:52:31;7.20;;;6.53;;
19842;SDS011;10082;51.038;6.992;2023-09-12T11:55:05;7.85;;;7.05;;
19842;SDS011;10082;51.038;6.992;2023-09-12T11:57:36;6.55;;;5.95;;
19842;SDS011;10082;51.038;6.992;2023-09-12T12:00:04;6.43;;;5.82;;
19842;SDS011;10082;51.038;6.992;2023-09-12T12:02:37;6.78;;;6.03;;
19842;SDS011;10082;51.038;6.992;2023-09-12T12:05:05;6.78;;;5.90;;
19842;SDS011;10082;51.038;6.992;2023-09-12T12:07:36;6.80;;;5.75;;
19842;SDS011;10082;51.038;6.992;2023-09-12T12:10:04;7.50;;;6.72;;
19842;SDS011;10082;51.038;6.992;2023-09-12T12:12:31;7.88;;;7.13;;
19842;SDS011;10082;51.038;6.992;2023-09-12T12:15:00;6.85;;;6.25;;
19842;SDS011;10082;51.038;6.992;2023-09-12T12:17:27;6.95;;;6.35;;
19842;SDS011;10082;51.038;6.992;2023-09-12T12:19:57;6.13;;;5.63;;
19842;SDS011;10082;51.038;6.992;2023-09-12T12:22:24;8.15;;;6.60;;
19842;SDS011;10082;51.038;6.992;2023-09-12T12:24:51;6.97;;;6.10;;
19842;SDS011;10082;51.038;6.992;2023-09-12T12:27:18;6.10;;;5.60;;
19842;SDS011;10082;51.038;6.992;2023-09-12T12:29:48;7.53;;;6.30;;
19842;SDS011;10082;51.038;6.992;2023-09-12T12:32:22;10.55;;;7.80;;
19842;SDS011;10082;51.038;6.992;2023-09-12T12:34:52;6.15;;;5.65;;
19842;SDS011;10082;51.038;6.992;2023-09-12T12:37:19;6.00;;;5.50;;
19842;SDS011;10082;51.038;6.992;2023-09-12T12:39:49;6.90;;;6.30;;
19842;SDS011;10082;51.038;6.992;2023-09-12T12:42:16;6.80;;;6.20;;
19842;SDS011;10082;51.038;6.992;2023-09-12T12:44:44;8.00;;;6.47;;
19842;SDS011;10082;51.038;6.992;2023-09-12T12:47:11;6.82;;;6.22;;
19842;SDS011;10082;51.038;6.992;2023-09-12T12:49:41;6.70;;;5.95;;
19842;SDS011;10082;51.038;6.992;2023-09-12T12:52:15;6.00;;;5.50;;
19842;SDS011;10082;51.038;6.992;2023-09-12T12:54:42;6.47;;;5.50;;
19842;SDS011;10082;51.038;6.992;2023-09-12T12:57:12;6.50;;;5.90;;
19842;SDS011;10082;51.038;6.992;2023-09-12T12:59:44;6.25;;;5.65;;
19842;SDS011;10082;51.038;6.992;2023-09-12T13:02:12;6.05;;;5.55;;
19842;SDS011;10082;51.038;6.992;2023-09-12T13:04:40;5.35;;;4.75;;
19842;SDS011;10082;51.038;6.992;2023-09-12T13:07:10;5.38;;;4.85;;
19842;SDS011;10082;51.038;6.992;2023-09-12T13:09:39;5.53;;;5.03;;
19842;SDS011;10082;51.038;6.992;2023-09-12T13:12:07;5.70;;;4.95;;
19842;SDS011;10082;51.038;6.992;2023-09-12T13:14:35;5.65;;;5.20;;
19842;SDS011;10082;51.038;6.992;2023-09-12T13:17:03;5.55;;;5.00;;
19842;SDS011;10082;51.038;6.992;2023-09-12T13:19:30;5.57;;;5.10;;
19842;SDS011;10082;51.038;6.992;2023-09-12T13:22:00;5.95;;;5.45;;
19842;SDS011;10082;51.038;6.992;2023-09-12T13:24:29;6.13;;;5.38;;
19842;SDS011;10082;51.038;6.992;2023-09-12T13:26:56;5.43;;;4.93;;
19842;SDS011;10082;51.038;6.992;2023-09-12T13:29:23;5.45;;;4.95;;
19842;SDS011;10082;51.038;6.992;2023-09-12T13:31:50;5.30;;;4.88;;
19842;SDS011;10082;51.038;6.992;2023-09-12T13:34:21;5.40;;;5.00;;
19842;SDS011;10082;51.038;6.992;2023-09-12T13:36:49;5.03;;;4.63;;
19842;SDS011;10082;51.038;6.992;2023-09-12T13:39:18;5.50;;;5.00;;
19842;SDS011;10082;51.038;6.992;2023-09-12T13:41:45;5.20;;;4.80;;
19842;SDS011;10082;51.038;6.992;2023-09-12T13:44:13;5.30;;;4.80;;
19842;SDS011;10082;51.038;6.992;2023-09-12T13:46:40;5.15;;;4.70;;
19842;SDS011;10082;51.038;6.992;2023-09-12T13:49:09;5.38;;;4.88;;
19842;SDS011;10082;51.038;6.992;2023-09-12T13:51:36;5.38;;;4.72;;
19842;SDS011;10082;51.038;6.992;2023-09-12T13:54:04;5.35;;;4.32;;
19842;SDS011;10082;51.038;6.992;2023-09-12T13:56:39;4.80;;;4.40;;
19842;SDS011;10082;51.038;6.992;2023-09-12T13:59:06;4.93;;;4.53;;
19842;SDS011;10082;51.038;6.992;2023-09-12T14:01:36;6.28;;;5.10;;
19842;SDS011;10082;51.038;6.992;2023-09-12T14:04:06;4.97;;;4.50;;
19842;SDS011;10082;51.038;6.992;2023-09-12T14:06:33;5.65;;;4.78;;
19842;SDS011;10082;51.038;6.992;2023-09-12T14:09:04;4.72;;;4.28;;
19842;SDS011;10082;51.038;6.992;2023-09-12T14:11:34;5.13;;;4.70;;
19842;SDS011;10082;51.038;6.992;2023-09-12T14:14:06;4.80;;;4.40;;
19842;SDS011;10082;51.038;6.992;2023-09-12T14:16:33;4.50;;;4.10;;
19842;SDS011;10082;51.038;6.992;2023-09-12T14:19:00;6.05;;;4.75;;
19842;SDS011;10082;51.038;6.992;2023-09-12T14:21:27;6.45;;;4.20;;
19842;SDS011;10082;51.038;6.992;2023-09-12T14:23:54;5.15;;;4.75;;
19842;SDS011;10082;51.038;6.992;2023-09-12T14:26:24;5.32;;;4.57;;
19842;SDS011;10082;51.038;6.992;2023-09-12T14:28:57;4.82;;;4.35;;
19842;SDS011;10082;51.038;6.992;2023-09-12T14:31:26;4.88;;;4.47;;
19842;SDS011;10082;51.038;6.992;2023-09-12T14:33:53;5.57;;;5.07;;
19842;SDS011;10082;51.038;6.992;2023-09-12T14:36:20;4.82;;;4.28;;
19842;SDS011;10082;51.038;6.992;2023-09-12T14:38:47;5.03;;;4.63;;
19842;SDS011;10082;51.038;6.992;2023-09-12T14:41:14;5.18;;;4.38;;
19842;SDS011;10082;51.038;6.992;2023-09-12T14:43:41;4.80;;;4.35;;
19842;SDS011;10082;51.038;6.992;2023-09-12T14:46:12;5.00;;;4.50;;
19842;SDS011;10082;51.038;6.992;2023-09-12T14:48:40;4.88;;;4.43;;
19842;SDS011;10082;51.038;6.992;2023-09-12T14:51:09;5.60;;;5.10;;
19842;SDS011;10082;51.038;6.992;2023-09-12T14:53:48;5.50;;;5.00;;
19842;SDS011;10082;51.038;6.992;2023-09-12T14:56:15;5.20;;;4.80;;
19842;SDS011;10082;51.038;6.992;2023-09-12T14:58:45;5.50;;;5.00;;
19842;SDS011;10082;51.038;6.992;2023-09-12T15:01:13;5.10;;;4.70;;
19842;SDS011;10082;51.038;6.992;2023-09-12T15:03:42;9.05;;;5.18;;
19842;SDS011;10082;51.038;6.992;2023-09-12T15:06:11;6.30;;;5.00;;
19842;SDS011;10082;51.038;6.992;2023-09-12T15:08:39;5.55;;;5.13;;
19842;SDS011;10082;51.038;6.992;2023-09-12T15:11:06;5.40;;;4.50;;
19842;SDS011;10082;51.038;6.992;2023-09-12T15:13:33;5.20;;;4.72;;
19842;SDS011;10082;51.038;6.992;2023-09-12T15:16:01;5.75;;;5.25;;